Time;durP1;ratioP1;P1;durP2;ratioP2;P2;SDS_P1;SDS_P2;PMS_P1;PMS_P2;Temp;Humidity;BMP_temperature;BMP_pressure;BME280_temperature;BME280_humidity;BME280_pressure;Samples;Min_cycle;Max_cycle;Signal;HPM_P1;HPM_P2
2021/12/31 11:22:26;;;;;;;4.60;3.07;;;;;;;11.66;92.83;101660.53;5318313;27;20373;-88
2021/12/31 11:25:28;;;;;;;7.83;3.27;;;;;;;11.68;94.79;101637.66;5326316;27;20479;-79
2021/12/31 11:27:59;;;;;;;8.33;3.23;;;;;;;11.74;93.10;101668.84;5302013;27;20062;-83
2021/12/31 11:30:33;;;;;;;5.23;2.40;;;;;;;11.75;93.32;101654.78;5316629;28;20103;-77
2021/12/31 11:33:17;;;;;;;;;;;;;;;11.86;94.96;101631.47;5317209;28;20047;-78
2021/12/31 11:36:01;;;;;;;7.60;2.83;;;;;;;11.79;93.45;101613.47;5311415;27;19919;-78
2021/12/31 11:38:34;;;;;;;4.33;2.40;;;;;;;11.97;92.48;101619.53;5310707;28;20631;-80
2021/12/31 11:41:14;;;;;;;7.00;2.70;;;;;;;12.06;93.22;101616.41;5321600;27;20035;-77
2021/12/31 11:44:04;;;;;;;6.23;2.70;;;;;;;12.15;93.04;101601.16;5309895;28;20056;-82
2021/12/31 11:46:38;;;;;;;4.63;2.67;;;;;;;12.24;91.92;101597.13;5328744;28;20047;-78
2021/12/31 11:49:21;;;;;;;4.45;2.45;;;;;;;12.34;91.65;101591.31;5313552;27;20561;-79
2021/12/31 11:51:59;;;;;;;9.73;2.90;;;;;;;12.32;90.99;101590.53;5310536;28;20043;-81
2021/12/31 11:54:32;;;;;;;8.03;3.30;;;;;;;12.30;90.68;101612.56;5314029;27;20016;-75
2021/12/31 11:57:05;;;;;;;6.27;2.43;;;;;;;12.25;90.47;101610.22;5317314;28;20085;-75
2021/12/31 11:59:43;;;;;;;4.22;2.25;;;;;;;12.42;90.32;101624.19;5310307;28;20024;-80
2021/12/31 12:02:18;;;;;;;3.93;2.10;;;;;;;12.44;90.26;101624.94;5316721;27;20575;-73
2021/12/31 12:04:59;;;;;;;7.63;2.30;;;;;;;12.51;90.77;101614.94;5315147;28;20081;-75
2021/12/31 12:07:38;;;;;;;4.47;2.03;;;;;;;12.54;90.38;101610.38;5301320;28;20026;-76
2021/12/31 12:10:12;;;;;;;7.07;2.87;;;;;;;12.57;89.96;101618.06;5316141;27;20053;-79
2021/12/31 12:12:49;;;;;;;10.25;4.07;;;;;;;12.72;89.12;101617.31;5329529;27;20038;-78
2021/12/31 12:15:21;;;;;;;5.60;2.20;;;;;;;12.75;88.88;101594.31;5321531;27;20081;-77
2021/12/31 12:17:52;;;;;;;3.77;2.17;;;;;;;12.83;87.48;101572.84;5313094;28;20047;-80
2021/12/31 12:20:33;;;;;;;5.60;3.10;;;;;;;12.99;88.37;101588.56;5327896;28;20122;-84
2021/12/31 12:23:12;;;;;;;6.40;2.23;;;;;;;13.06;88.74;101592.53;5320181;28;20034;-85
2021/12/31 12:25:44;;;;;;;5.47;2.47;;;;;;;13.10;87.44;101587.09;5324965;27;20035;-78
2021/12/31 12:28:19;;;;;;;5.57;3.13;;;;;;;13.17;87.03;101604.22;5317608;28;20482;-76
2021/12/31 12:31:00;;;;;;;6.00;2.17;;;;;;;13.15;86.99;101592.94;5327088;27;20023;-75
2021/12/31 12:33:31;;;;;;;5.40;2.63;;;;;;;13.16;86.96;101595.47;5303815;28;20040;-82
2021/12/31 12:36:02;;;;;;;6.30;2.00;;;;;;;13.12;86.33;101578.19;5294836;28;20490;-76
2021/12/31 12:38:34;;;;;;;5.17;2.90;;;;;;;13.16;86.32;101594.63;5295169;28;20035;-79
2021/12/31 12:41:09;;;;;;;9.90;2.90;;;;;;;13.22;86.09;101609.19;5293822;28;20040;-81
2021/12/31 12:43:48;;;;;;;4.90;2.63;;;;;;;13.19;86.94;101600.53;5297591;28;20430;-78
2021/12/31 12:46:21;;;;;;;8.80;2.53;;;;;;;13.21;85.83;101592.59;5294756;28;20027;-80
2021/12/31 12:48:54;;;;;;;5.50;2.60;;;;;;;13.25;85.39;101596.72;5297932;28;20031;-75
2021/12/31 12:51:31;;;;;;;3.80;2.10;;;;;;;13.18;87.63;101613.78;5291669;28;20069;-78
2021/12/31 12:54:03;;;;;;;4.17;2.30;;;;;;;13.19;87.01;101644.44;5294348;28;20036;-74
2021/12/31 12:56:34;;;;;;;5.73;3.07;;;;;;;13.24;86.03;101645.00;5294992;28;20035;-79
2021/12/31 12:59:05;;;;;;;6.37;2.67;;;;;;;13.19;86.19;101655.78;5287532;28;20118;-79
2021/12/31 13:01:46;;;;;;;5.00;3.13;;;;;;;13.13;87.29;101652.66;5294852;28;20683;-80
2021/12/31 13:04:24;;;;;;;6.07;2.63;;;;;;;13.18;87.29;101645.34;5320913;27;20618;-80
2021/12/31 13:07:02;;;;;;;7.93;2.70;;;;;;;13.17;86.92;101655.03;5291607;28;20130;-81
2021/12/31 13:09:33;;;;;;;12.27;3.17;;;;;;;13.18;87.16;101656.72;5288556;28;20023;-80
2021/12/31 13:12:07;;;;;;;4.70;2.10;;;;;;;13.18;87.15;101661.13;5296072;27;20051;-76
2021/12/31 13:14:38;;;;;;;4.97;2.05;;;;;;;13.17;86.72;101654.19;5293165;28;20016;-72
2021/12/31 13:17:10;;;;;;;7.67;2.50;;;;;;;13.22;86.85;101667.91;5294838;28;20031;-80
2021/12/31 13:19:44;;;;;;;7.53;1.93;;;;;;;13.21;86.78;101679.38;5284724;28;20038;-74
2021/12/31 13:22:16;;;;;;;6.13;2.43;;;;;;;13.24;86.51;101683.59;5288275;28;20152;-84
2021/12/31 13:24:53;;;;;;;5.93;3.03;;;;;;;13.19;87.24;101668.09;5294758;28;20047;-81
2021/12/31 13:27:24;;;;;;;4.10;2.13;;;;;;;13.24;86.68;101675.72;5317785;27;20051;-83
2021/12/31 13:30:11;;;;;;;5.33;1.97;;;;;;;13.31;86.91;101685.81;5297044;28;20031;-84
2021/12/31 13:32:47;;;;;;;6.13;2.70;;;;;;;13.22;87.47;101680.22;5295551;28;20398;-84
2021/12/31 13:35:23;;;;;;;10.10;2.53;;;;;;;13.28;87.13;101685.13;5289498;28;20027;-78
2021/12/31 13:38:03;;;;;;;6.40;2.60;;;;;;;13.33;87.32;101698.00;5288713;28;20034;-78
2021/12/31 13:40:34;;;;;;;6.67;2.80;;;;;;;13.34;86.57;101687.41;5288826;28;20036;-74
2021/12/31 13:43:08;;;;;;;9.50;3.07;;;;;;;13.29;86.84;101681.56;5324919;27;20529;-78
2021/12/31 13:45:45;;;;;;;6.53;3.90;;;;;;;13.28;87.21;101683.34;5282461;28;20458;-78
2021/12/31 13:48:16;;;;;;;30.50;25.73;;;;;;;13.29;87.14;101687.69;5288640;28;20082;-74
2021/12/31 13:50:48;;;;;;;9.07;3.80;;;;;;;13.26;87.31;101689.63;5299295;28;20032;-77
2021/12/31 13:53:21;;;;;;;6.83;3.13;;;;;;;13.26;87.35;101692.25;5293512;28;20032;-80
2021/12/31 13:55:53;;;;;;;9.17;3.57;;;;;;;13.27;87.00;101693.94;5284483;28;20074;-78
2021/12/31 13:58:28;;;;;;;7.03;3.73;;;;;;;13.21;88.32;101696.94;5283958;28;20044;-75
2021/12/31 14:01:21;;;;;;;8.07;4.33;;;;;;;13.25;87.81;101698.44;5285406;28;20032;-80
2021/12/31 14:04:10;;;;;;;6.27;3.37;;;;;;;13.21;88.29;101695.16;5284230;28;20171;-87
2021/12/31 14:06:42;;;;;;;6.73;3.20;;;;;;;13.18;87.91;101703.22;5289984;28;20039;-90
2021/12/31 14:09:14;;;;;;;6.40;2.90;;;;;;;13.14;87.88;101712.22;5290872;28;20019;-82
2021/12/31 14:11:46;;;;;;;17.00;13.60;;;;;;;13.19;87.34;101720.72;5283720;28;20107;-79
2021/12/31 14:14:17;;;;;;;11.40;3.47;;;;;;;13.13;88.15;101715.78;5287295;28;20100;-79
2021/12/31 14:16:48;;;;;;;5.03;2.83;;;;;;;13.12;87.98;101729.88;5283066;28;20020;-74
2021/12/31 14:19:19;;;;;;;10.60;4.23;;;;;;;13.14;88.10;101728.00;5283651;28;20040;-77
2021/12/31 14:21:51;;;;;;;6.83;3.87;;;;;;;13.06;88.54;101720.53;5279680;28;20083;-82
2021/12/31 14:24:22;;;;;;;9.10;3.87;;;;;;;13.04;89.06;101741.66;5297976;28;20401;-83
2021/12/31 14:26:54;;;;;;;11.90;3.67;;;;;;;12.93;88.86;101733.53;5292191;28;20034;-82
2021/12/31 14:29:27;;;;;;;8.07;3.80;;;;;;;13.06;89.03;101754.72;5294467;28;20081;-82
2021/12/31 14:32:04;;;;;;;9.23;4.17;;;;;;;13.05;89.45;101756.53;5296346;28;20032;-87
2021/12/31 14:34:36;;;;;;;9.63;4.20;;;;;;;13.04;88.99;101765.34;5301273;28;20571;-86
2021/12/31 14:37:12;;;;;;;6.03;2.70;;;;;;;12.96;89.80;101754.41;5305170;28;20036;-88
2021/12/31 14:39:55;;;;;;;11.20;3.27;;;;;;;12.92;90.02;101756.34;5293016;28;20046;-87
2021/12/31 14:42:29;;;;;;;9.33;3.90;;;;;;;12.99;89.77;101758.63;5292639;28;20027;-78
2021/12/31 14:45:01;;;;;;;8.75;3.40;;;;;;;12.94;90.09;101761.53;5294823;28;20027;-79
2021/12/31 14:47:32;;;;;;;10.27;4.80;;;;;;;12.98;90.21;101770.94;5289698;28;20482;-80
2021/12/31 14:50:05;;;;;;;11.03;4.40;;;;;;;12.92;90.55;101771.28;5292070;28;20523;-81
2021/12/31 14:52:38;;;;;;;14.30;5.00;;;;;;;12.94;90.48;101775.53;5291636;28;20097;-80
2021/12/31 14:55:12;;;;;;;11.37;4.17;;;;;;;12.94;91.15;101779.94;5292822;28;20024;-83
2021/12/31 14:57:45;;;;;;;10.88;5.40;;;;;;;12.89;92.52;101781.97;5288407;28;20028;-80
2021/12/31 15:00:18;;;;;;;10.23;5.07;;;;;;;12.83;93.28;101773.47;5291614;28;20031;-80
2021/12/31 15:02:50;;;;;;;9.75;5.93;;;;;;;12.77;95.32;101794.00;5290944;28;20075;-79
2021/12/31 15:05:21;;;;;;;10.77;6.13;;;;;;;12.78;94.59;101780.75;5291071;28;20117;-78
2021/12/31 15:07:53;;;;;;;10.70;6.43;;;;;;;12.66;95.19;101784.91;5291913;28;20031;-78
2021/12/31 15:10:24;;;;;;;12.83;6.10;;;;;;;12.67;95.17;101805.00;5295197;28;20034;-78
2021/12/31 15:12:55;;;;;;;11.47;6.83;;;;;;;12.63;96.11;101786.84;5286285;28;20122;-75
2021/12/31 15:15:27;;;;;;;11.57;7.47;;;;;;;12.71;96.17;101813.56;5296138;28;20020;-78
2021/12/31 15:17:58;;;;;;;12.23;8.00;;;;;;;12.59;96.62;101804.56;5292769;28;20031;-79
2021/12/31 15:20:30;;;;;;;16.70;8.33;;;;;;;12.60;96.50;101814.16;5303021;28;20028;-79
2021/12/31 15:23:01;;;;;;;15.07;8.90;;;;;;;12.68;96.17;101811.09;5299159;28;20039;-79
2021/12/31 15:25:33;;;;;;;22.63;17.10;;;;;;;12.61;96.71;101814.97;5286608;28;20375;-78
2021/12/31 15:28:04;;;;;;;21.07;11.43;;;;;;;12.52;97.14;101809.28;5287005;28;20111;-79
2021/12/31 15:30:37;;;;;;;14.53;9.27;;;;;;;12.51;97.94;101830.41;5284885;28;20708;-79
2021/12/31 15:33:08;;;;;;;14.97;10.20;;;;;;;12.52;97.57;101821.56;5298550;28;21147;-81
2021/12/31 15:35:39;;;;;;;18.67;11.53;;;;;;;12.50;98.11;101826.91;5281748;28;20080;-79
2021/12/31 15:38:11;;;;;;;18.83;10.23;;;;;;;12.40;99.27;101823.06;5287182;28;20390;-78
2021/12/31 15:40:44;;;;;;;14.77;9.70;;;;;;;12.47;98.85;101824.44;5282067;28;21348;-78
2021/12/31 15:43:15;;;;;;;13.67;8.57;;;;;;;12.44;99.06;101824.63;5279268;28;20032;-78
2021/12/31 15:45:47;;;;;;;14.50;10.37;;;;;;;12.41;99.28;101830.88;5280213;28;20032;-78
2021/12/31 15:48:19;;;;;;;16.67;10.83;;;;;;;12.42;99.52;101826.47;5282506;28;20063;-78
2021/12/31 15:50:50;;;;;;;12.67;9.67;;;;;;;12.39;100.00;101826.63;5290742;28;20169;-76
2021/12/31 15:53:22;;;;;;;18.40;10.83;;;;;;;12.37;100.00;101828.47;5278434;28;20081;-76
2021/12/31 15:55:53;;;;;;;16.77;10.50;;;;;;;12.40;100.00;101829.19;5287636;28;20534;-77
2021/12/31 15:58:24;;;;;;;98.97;89.33;;;;;;;12.35;100.00;101823.31;5295984;28;20474;-79
2021/12/31 16:00:55;;;;;;;26.07;22.50;;;;;;;12.33;100.00;101822.53;5284413;28;20122;-85
2021/12/31 16:03:27;;;;;;;19.93;13.47;;;;;;;12.37;100.00;101823.22;5287506;28;20073;-80
2021/12/31 16:05:58;;;;;;;15.27;11.10;;;;;;;12.32;100.00;101820.84;5281810;28;20168;-82
2021/12/31 16:08:30;;;;;;;17.87;11.23;;;;;;;12.33;100.00;101828.66;5283885;28;20719;-79
2021/12/31 16:11:02;;;;;;;14.90;10.93;;;;;;;12.33;99.97;101825.16;5276734;28;20032;-78
2021/12/31 16:13:34;;;;;;;18.47;12.10;;;;;;;12.36;99.39;101824.19;5296011;28;20033;-84
2021/12/31 16:16:05;;;;;;;16.60;12.90;;;;;;;12.28;99.73;101817.53;5292388;28;20969;-85
2021/12/31 16:18:37;;;;;;;21.30;14.90;;;;;;;12.23;99.57;101819.53;5293253;28;20078;-78
2021/12/31 16:21:08;;;;;;;24.33;15.07;;;;;;;12.19;99.80;101818.84;5293854;28;20054;-82
2021/12/31 16:23:39;;;;;;;21.13;14.27;;;;;;;12.17;99.92;101820.69;5295688;28;20479;-75
2021/12/31 16:26:11;;;;;;;19.87;14.27;;;;;;;12.07;99.94;101812.41;5293307;28;20193;-74
2021/12/31 16:28:43;;;;;;;18.77;15.80;;;;;;;12.11;100.00;101821.03;5292974;28;20565;-83
2021/12/31 16:31:14;;;;;;;22.40;15.60;;;;;;;12.06;99.51;101813.34;5292792;28;20032;-81
2021/12/31 16:33:45;;;;;;;22.50;16.67;;;;;;;11.95;100.00;101808.66;5293527;28;20032;-82
2021/12/31 16:36:17;;;;;;;18.27;14.60;;;;;;;12.07;99.56;101822.94;5295083;28;20028;-86
2021/12/31 16:38:48;;;;;;;15.47;13.80;;;;;;;12.01;99.64;101820.59;5293578;28;20032;-86
2021/12/31 16:41:19;;;;;;;22.03;13.67;;;;;;;11.93;100.00;101828.00;5294315;28;20032;-76
2021/12/31 16:43:51;;;;;;;14.73;12.90;;;;;;;11.93;100.00;101838.50;5293724;28;20024;-78
2021/12/31 16:46:22;;;;;;;16.17;13.23;;;;;;;11.96;100.00;101838.34;5291741;28;20024;-77
2021/12/31 16:48:53;;;;;;;14.90;10.93;;;;;;;12.00;99.70;101837.28;5293078;28;20031;-76
2021/12/31 16:51:24;;;;;;;16.83;10.80;;;;;;;11.91;100.00;101841.22;5299671;28;20032;-82
2021/12/31 16:53:56;;;;;;;16.57;13.00;;;;;;;11.94;100.00;101855.94;5298524;28;20441;-77
2021/12/31 16:56:27;;;;;;;18.20;12.73;;;;;;;11.90;100.00;101851.78;5286368;28;20615;-78
2021/12/31 16:58:58;;;;;;;16.70;13.37;;;;;;;11.95;100.00;101850.66;5293791;28;20024;-83
2021/12/31 17:01:30;;;;;;;17.90;12.47;;;;;;;11.92;100.00;101853.41;5302182;28;20043;-86
2021/12/31 17:04:01;;;;;;;16.27;11.47;;;;;;;11.86;100.00;101865.06;5294805;28;20031;-84
2021/12/31 17:06:32;;;;;;;13.67;10.57;;;;;;;11.84;100.00;101863.44;5294607;28;20466;-85
2021/12/31 17:09:06;;;;;;;12.30;9.40;;;;;;;11.87;100.00;101871.16;5293137;28;20028;-82
2021/12/31 17:11:38;;;;;;;13.77;9.48;;;;;;;11.86;100.00;101886.06;5294219;28;20031;-81
2021/12/31 17:14:09;;;;;;;14.30;10.57;;;;;;;11.74;100.00;101891.91;5294320;28;20024;-82
2021/12/31 17:16:40;;;;;;;19.40;10.70;;;;;;;11.75;100.00;101885.72;5292758;28;20510;-82
2021/12/31 17:19:12;;;;;;;14.87;9.70;;;;;;;11.73;100.00;101890.19;5294271;28;20115;-82
2021/12/31 17:21:43;;;;;;;14.07;9.77;;;;;;;11.69;100.00;101891.28;5293439;28;20146;-83
2021/12/31 17:24:14;;;;;;;16.47;11.27;;;;;;;11.62;100.00;101894.19;5294295;28;20034;-81
2021/12/31 17:26:46;;;;;;;15.53;11.03;;;;;;;11.54;100.00;101882.34;5293729;28;20023;-81
2021/12/31 17:29:18;;;;;;;15.73;10.60;;;;;;;11.71;100.00;101899.94;5293764;28;20020;-81
2021/12/31 17:31:49;;;;;;;19.33;12.57;;;;;;;11.58;100.00;101905.75;5294167;28;20032;-76
2021/12/31 17:34:21;;;;;;;13.73;11.67;;;;;;;11.70;100.00;101900.84;5308765;28;20028;-72
2021/12/31 17:36:52;;;;;;;16.77;11.87;;;;;;;11.73;100.00;101909.41;5303559;28;20161;-73
2021/12/31 17:39:24;;;;;;;19.33;14.20;;;;;;;11.68;100.00;101914.03;5308296;28;20071;-90
2021/12/31 17:41:55;;;;;;;23.43;18.57;;;;;;;11.69;100.00;101920.16;5307585;28;20501;-79
2021/12/31 17:44:26;;;;;;;21.97;16.40;;;;;;;11.62;100.00;101920.41;5299549;28;20084;-79
2021/12/31 17:46:57;;;;;;;19.70;13.67;;;;;;;11.65;100.00;101921.19;5303154;28;20020;-78
2021/12/31 17:49:29;;;;;;;18.77;12.10;;;;;;;11.71;100.00;101931.44;5313584;28;20031;-78
2021/12/31 17:52:07;;;;;;;20.17;13.87;;;;;;;11.70;100.00;101955.94;5308523;28;20377;-77
2021/12/31 17:54:38;;;;;;;17.53;12.90;;;;;;;11.62;100.00;101951.91;5313933;28;20603;-72
2021/12/31 17:57:10;;;;;;;17.57;10.73;;;;;;;11.79;100.00;101952.91;5305033;28;20110;-74
2021/12/31 17:59:44;;;;;;;14.73;10.43;;;;;;;11.74;100.00;101945.25;5298821;28;20042;-78
2021/12/31 18:02:15;;;;;;;17.02;10.93;;;;;;;11.79;100.00;101968.66;5313324;28;20035;-79
2021/12/31 18:04:46;;;;;;;12.20;10.03;;;;;;;11.71;100.00;101955.03;5314101;28;20020;-87
2021/12/31 18:07:18;;;;;;;15.53;11.20;;;;;;;11.82;100.00;101981.63;5312172;28;20023;-79
2021/12/31 18:09:50;;;;;;;16.27;10.30;;;;;;;11.71;100.00;101970.78;5313171;28;20150;-80
2021/12/31 18:12:21;;;;;;;14.70;11.50;;;;;;;11.83;100.00;101983.31;5311847;28;20037;-76
2021/12/31 18:14:53;;;;;;;14.10;10.47;;;;;;;11.88;100.00;101979.63;5314672;28;20027;-82
2021/12/31 18:17:24;;;;;;;15.43;11.30;;;;;;;11.73;100.00;101963.66;5312574;28;20032;-82
2021/12/31 18:19:55;;;;;;;14.20;10.60;;;;;;;11.79;100.00;101984.41;5309147;28;20390;-77
2021/12/31 18:22:27;;;;;;;14.10;10.10;;;;;;;11.81;100.00;101990.44;5291411;28;20040;-88
2021/12/31 18:24:58;;;;;;;18.73;13.30;;;;;;;11.90;100.00;101997.03;5288382;28;20081;-86
2021/12/31 18:27:30;;;;;;;76.67;65.50;;;;;;;11.83;100.00;101998.22;5287674;28;20032;-90
2021/12/31 18:30:01;;;;;;;28.00;20.00;;;;;;;11.86;100.00;102013.84;5289061;28;20032;-81
2021/12/31 18:32:33;;;;;;;47.97;32.50;;;;;;;11.81;100.00;102000.94;5289424;28;20093;-81
2021/12/31 18:35:07;;;;;;;17.47;13.67;;;;;;;11.85;100.00;102014.78;5282329;28;20059;-79
2021/12/31 18:37:38;;;;;;;16.17;12.60;;;;;;;11.95;100.00;102012.56;5281007;28;20063;-87
2021/12/31 18:40:11;;;;;;;16.37;12.27;;;;;;;11.93;100.00;102027.53;5291889;28;20498;-82
2021/12/31 18:42:42;;;;;;;16.97;11.93;;;;;;;11.86;100.00;102025.19;5290146;28;20372;-90
2021/12/31 18:45:15;;;;;;;16.10;12.03;;;;;;;11.99;100.00;102029.84;5295666;28;20035;-82
2021/12/31 18:47:50;;;;;;;74.10;66.87;;;;;;;11.98;100.00;102030.78;5291697;28;20490;-79
2021/12/31 18:50:22;;;;;;;18.43;12.57;;;;;;;12.04;100.00;102027.88;5304254;28;20020;-81
2021/12/31 18:52:55;;;;;;;20.47;13.87;;;;;;;11.94;100.00;102023.97;5302536;28;20024;-82
2021/12/31 18:55:27;;;;;;;17.47;12.27;;;;;;;12.08;100.00;102039.94;5306416;28;20035;-77
2021/12/31 18:57:59;;;;;;;15.70;11.93;;;;;;;12.04;100.00;102043.63;5297780;28;20020;-77
2021/12/31 19:00:31;;;;;;;18.17;12.97;;;;;;;12.02;100.00;102042.00;5290932;28;20118;-75
2021/12/31 19:03:02;;;;;;;21.37;12.53;;;;;;;12.04;100.00;102051.53;5293131;28;20067;-82
2021/12/31 19:05:34;;;;;;;15.33;11.30;;;;;;;12.05;100.00;102050.56;5295481;28;20143;-77
2021/12/31 19:08:05;;;;;;;17.00;12.93;;;;;;;12.01;100.00;102051.63;5290676;28;20027;-77
2021/12/31 19:10:36;;;;;;;18.30;14.30;;;;;;;12.06;100.00;102057.53;5293568;28;20020;-78
2021/12/31 19:13:07;;;;;;;19.00;13.37;;;;;;;12.01;100.00;102040.31;5295174;28;20036;-79
2021/12/31 19:15:39;;;;;;;20.57;12.00;;;;;;;12.08;100.00;102060.06;5295895;28;20128;-81
2021/12/31 19:18:10;;;;;;;19.70;12.13;;;;;;;12.06;100.00;102070.66;5292012;28;20016;-75
2021/12/31 19:20:41;;;;;;;17.07;11.03;;;;;;;12.08;100.00;102070.56;5296505;28;20047;-76
2021/12/31 19:23:13;;;;;;;16.63;11.27;;;;;;;12.00;100.00;102057.81;5306399;28;20120;-82
2021/12/31 19:25:44;;;;;;;19.00;13.23;;;;;;;12.05;100.00;102066.34;5300290;28;20028;-73
2021/12/31 19:28:16;;;;;;;21.40;12.30;;;;;;;12.13;100.00;102076.50;5297521;28;20020;-76
2021/12/31 19:30:47;;;;;;;16.90;11.43;;;;;;;12.07;100.00;102085.50;5302157;28;20015;-89
2021/12/31 19:33:19;;;;;;;26.43;18.77;;;;;;;12.12;100.00;102082.69;5305927;28;20033;-86
2021/12/31 19:35:51;;;;;;;19.07;11.90;;;;;;;12.17;100.00;102088.56;5299294;28;20036;-81
2021/12/31 19:38:22;;;;;;;21.47;13.73;;;;;;;12.14;100.00;102085.25;5300791;28;20105;-76
2021/12/31 19:40:54;;;;;;;20.93;11.73;;;;;;;12.21;100.00;102081.41;5303828;28;20513;-83
2021/12/31 19:43:32;;;;;;;15.27;10.53;;;;;;;12.18;100.00;102077.13;5297257;28;20088;-79
2021/12/31 19:46:03;;;;;;;19.37;11.63;;;;;;;12.13;100.00;102081.75;5315196;28;20031;-78
2021/12/31 19:48:35;;;;;;;22.43;12.03;;;;;;;12.13;100.00;102073.88;5318056;28;20413;-82
2021/12/31 19:51:06;;;;;;;21.27;11.57;;;;;;;12.18;100.00;102089.44;5314762;28;20555;-79
2021/12/31 19:53:37;;;;;;;22.20;15.50;;;;;;;12.14;100.00;102088.72;5308373;28;20478;-78
2021/12/31 19:56:09;;;;;;;19.70;13.37;;;;;;;12.24;100.00;102091.75;5312002;28;20023;-81
2021/12/31 19:58:40;;;;;;;19.80;13.10;;;;;;;12.09;100.00;102094.19;5314173;28;20111;-84
2021/12/31 20:01:11;;;;;;;18.60;11.73;;;;;;;12.07;100.00;102084.63;5315974;28;20059;-78
2021/12/31 20:03:42;;;;;;;24.10;14.37;;;;;;;12.21;100.00;102102.41;5302309;28;20032;-75
2021/12/31 20:06:15;;;;;;;24.50;14.07;;;;;;;12.11;100.00;102096.75;5310680;28;20093;-79
2021/12/31 20:08:46;;;;;;;20.00;14.80;;;;;;;12.08;100.00;102097.69;5315368;28;20020;-79
2021/12/31 20:11:17;;;;;;;68.73;57.47;;;;;;;12.14;100.00;102103.63;5300953;28;20439;-75
2021/12/31 20:13:48;;;;;;;47.03;37.33;;;;;;;12.03;100.00;102088.31;5298597;28;20035;-77
2021/12/31 20:16:20;;;;;;;27.83;20.03;;;;;;;12.15;100.00;102098.28;5297503;28;20046;-75
2021/12/31 20:18:51;;;;;;;25.40;16.83;;;;;;;12.17;100.00;102106.09;5297655;28;20035;-78
2021/12/31 20:21:22;;;;;;;24.83;14.73;;;;;;;12.19;100.00;102094.63;5297127;28;20051;-77
2021/12/31 20:23:54;;;;;;;21.97;13.60;;;;;;;12.14;100.00;102103.63;5295755;28;20503;-76
2021/12/31 20:26:25;;;;;;;18.77;13.07;;;;;;;12.12;100.00;102093.19;5294052;28;20040;-81
2021/12/31 20:28:56;;;;;;;21.60;13.63;;;;;;;12.12;100.00;102106.31;5292286;28;20028;-83
2021/12/31 20:31:27;;;;;;;20.80;12.60;;;;;;;12.18;100.00;102115.69;5295185;28;20036;-82
2021/12/31 20:33:59;;;;;;;18.93;13.30;;;;;;;12.06;100.00;102110.03;5304486;28;20097;-86
2021/12/31 20:36:30;;;;;;;27.77;14.70;;;;;;;12.10;100.00;102114.28;5279546;28;20038;-86
2021/12/31 20:39:02;;;;;;;28.20;14.80;;;;;;;12.16;100.00;102131.53;5298084;28;20036;-84
2021/12/31 20:41:33;;;;;;;19.73;12.43;;;;;;;12.18;100.00;102132.28;5291362;28;20101;-82
2021/12/31 20:44:05;;;;;;;18.47;11.60;;;;;;;12.10;100.00;102127.41;5300504;28;20578;-90
2021/12/31 20:46:37;;;;;;;19.80;10.97;;;;;;;12.14;100.00;102127.25;5295175;28;20098;-83
2021/12/31 20:49:10;;;;;;;16.60;9.93;;;;;;;12.14;100.00;102122.00;5297425;28;20533;-83
2021/12/31 20:51:42;;;;;;;26.40;14.90;;;;;;;12.13;100.00;102130.81;5286082;28;20016;-73
2021/12/31 20:54:13;;;;;;;24.47;15.37;;;;;;;12.16;100.00;102133.28;5296128;28;20470;-77
2021/12/31 20:56:44;;;;;;;23.13;13.73;;;;;;;12.26;99.52;102128.47;5290596;28;20024;-81
2021/12/31 20:59:15;;;;;;;22.53;10.53;;;;;;;12.18;100.00;102126.19;5296388;28;20029;-86
2021/12/31 21:01:47;;;;;;;15.87;10.70;;;;;;;12.20;99.96;102137.50;5290853;28;20036;-88
2021/12/31 21:04:19;;;;;;;17.07;9.83;;;;;;;12.18;100.00;102145.41;5293938;28;20024;-86
2021/12/31 21:06:50;;;;;;;16.40;9.27;;;;;;;12.09;100.00;102133.59;5293673;28;20012;-85
2021/12/31 21:09:21;;;;;;;12.70;7.80;;;;;;;12.13;99.81;102139.53;5295779;28;20036;-84
2021/12/31 21:11:53;;;;;;;18.77;11.93;;;;;;;12.15;100.00;102153.44;5296532;28;20050;-85
2021/12/31 21:14:24;;;;;;;24.63;16.23;;;;;;;12.14;100.00;102158.78;5296675;28;20026;-86
2021/12/31 21:16:56;;;;;;;25.13;13.80;;;;;;;12.09;99.83;102144.09;5291377;28;20027;-87
2021/12/31 21:19:27;;;;;;;17.17;10.23;;;;;;;12.14;100.00;102159.63;5294828;28;20046;-83
2021/12/31 21:21:58;;;;;;;21.30;12.00;;;;;;;12.20;99.58;102156.72;5297189;28;20047;-78
2021/12/31 21:24:30;;;;;;;20.93;12.70;;;;;;;12.10;100.00;102153.66;5296224;28;20035;-77
2021/12/31 21:27:02;;;;;;;20.83;13.80;;;;;;;12.20;99.91;102161.13;5302501;28;20104;-80
2021/12/31 21:29:34;;;;;;;19.73;12.70;;;;;;;12.21;99.48;102161.06;5300756;28;20042;-77
2021/12/31 21:32:05;;;;;;;18.47;9.90;;;;;;;12.17;99.98;102170.00;5295860;28;20180;-81
2021/12/31 21:34:36;;;;;;;23.47;12.30;;;;;;;12.17;99.83;102169.13;5279048;28;20107;-86
2021/12/31 21:37:08;;;;;;;17.33;9.83;;;;;;;12.08;100.00;102160.72;5296554;28;20028;-89
2021/12/31 21:39:39;;;;;;;19.47;10.53;;;;;;;12.06;100.00;102164.34;5298845;28;20028;-85
2021/12/31 21:42:10;;;;;;;22.30;12.40;;;;;;;12.13;100.00;102178.09;5297979;28;20055;-81
2021/12/31 21:44:42;;;;;;;21.60;10.80;;;;;;;12.05;100.00;102186.25;5296169;28;20016;-84
2021/12/31 21:47:13;;;;;;;20.17;11.83;;;;;;;12.15;100.00;102197.25;5293831;28;20081;-79
2021/12/31 21:49:44;;;;;;;21.80;13.37;;;;;;;12.09;100.00;102199.25;5280396;28;20035;-90
2021/12/31 21:52:15;;;;;;;59.93;44.57;;;;;;;12.06;100.00;102193.25;5296206;28;20071;-82
2021/12/31 21:54:47;;;;;;;54.83;43.70;;;;;;;12.04;100.00;102189.81;5299100;28;20035;-77
2021/12/31 21:57:18;;;;;;;22.07;12.10;;;;;;;12.13;100.00;102188.59;5299719;28;20509;-78
2021/12/31 21:59:49;;;;;;;29.17;14.60;;;;;;;12.08;100.00;102181.72;5295291;28;20028;-77
2021/12/31 22:02:21;;;;;;;20.90;12.80;;;;;;;12.06;100.00;102182.72;5297844;28;20073;-81
2021/12/31 22:04:52;;;;;;;22.87;12.53;;;;;;;12.05;100.00;102196.75;5300236;28;20031;-86
2021/12/31 22:07:24;;;;;;;28.23;15.00;;;;;;;12.04;100.00;102193.31;5315527;28;20027;-83
2021/12/31 22:09:55;;;;;;;31.23;14.93;;;;;;;11.98;100.00;102183.91;5296009;28;20024;-79
2021/12/31 22:12:26;;;;;;;27.50;15.40;;;;;;;12.03;100.00;102190.72;5295584;28;20458;-70
2021/12/31 22:14:58;;;;;;;26.97;13.80;;;;;;;11.97;100.00;102189.25;5286883;28;20799;-74
2021/12/31 22:17:29;;;;;;;32.00;13.17;;;;;;;12.00;100.00;102196.13;5295127;28;20112;-77
2021/12/31 22:20:03;;;;;;;22.93;12.47;;;;;;;12.04;100.00;102206.44;5312232;28;20482;-74
2021/12/31 22:22:34;;;;;;;30.17;12.75;;;;;;;12.08;100.00;102212.38;5307007;28;20118;-76
2021/12/31 22:25:06;;;;;;;27.47;15.53;;;;;;;11.97;100.00;102194.50;5304197;28;20095;-80
2021/12/31 22:27:37;;;;;;;25.90;14.50;;;;;;;11.96;100.00;102191.00;5301217;28;20054;-77
2021/12/31 22:30:09;;;;;;;21.47;12.40;;;;;;;11.98;100.00;102198.81;5302779;28;20099;-76
2021/12/31 22:32:41;;;;;;;22.83;13.40;;;;;;;11.91;100.00;102181.63;5312061;28;20744;-76
2021/12/31 22:35:12;;;;;;;29.33;14.63;;;;;;;12.00;100.00;102194.34;5296219;28;20028;-79
2021/12/31 22:37:44;;;;;;;27.23;14.80;;;;;;;11.98;100.00;102194.41;5315184;28;20023;-76
2021/12/31 22:40:15;;;;;;;33.30;17.57;;;;;;;11.93;100.00;102199.03;5303759;28;20034;-75
2021/12/31 22:42:47;;;;;;;34.47;12.93;;;;;;;11.97;100.00;102194.50;5307766;27;20044;-75
2021/12/31 22:45:18;;;;;;;28.40;16.00;;;;;;;11.97;99.89;102189.25;5304085;28;20103;-77
2021/12/31 22:47:50;;;;;;;38.17;20.60;;;;;;;12.01;100.00;102198.66;5303644;28;20024;-75
2021/12/31 22:50:21;;;;;;;44.33;24.77;;;;;;;11.90;100.00;102193.06;5302211;28;20020;-87
2021/12/31 22:52:52;;;;;;;43.87;27.97;;;;;;;11.98;100.00;102190.94;5309774;28;20028;-82
2021/12/31 22:55:24;;;;;;;39.57;19.53;;;;;;;11.97;100.00;102190.06;5304915;28;20497;-76